Terminal Aerodrome Forecast
Issued by NWS

Home | Current Version | Previous Version | Text Only | Print | Product List | Glossary On
Versions: 1 2 3 4 5 6 7 8 9 10 11 12 13 14 15 16
000
FTUS44 KLZK 292331
TAFHOT
TAF
KHOT 292331Z 3000/3024 07006KT P6SM -TSRA SCT040CB SCT250
     FM300200 10006KT P6SM SCT040 BKN250
     FM300600 13004KT P6SM SCT250
      TEMPO 3010/3013 5SM BR
     FM301400 15005KT P6SM FEW050 BKN250
     FM301800 17010KT P6SM VCTS SCT050CB BKN250=

USA.gov is the U.S. government's official web portal to all federal, state and local government web resources and services.